Kreuzweg, Germany

8:02 PM CEST on April 22, 2018 (GMT +0200)
Uetze | | Change Station

Elev 173 ft 52.48 °N, 10.09 °E | Updated 1 minute ago

Mostly Cloudy
Mostly Cloudy
72.9 °F
Feels Like 76 °F
N
3.1
Wind Variable Wind from SE
Gusts 5.6 mph

Today
High -- | Low -- °F
--% Chance of Precip.
Yesterday
High -- | Low -- °F
Precip. -- in
Pressure 29.80 in
Visibility 6.2 miles
Clouds Few 4000 ft
Scattered Clouds 14000 ft
Mostly Cloudy 28000 ft
Heat Index 76 °F
Dew Point 59 °F
Humidity 61%
Rainfall 0.12 in
Snow Depth Not available.
6:07 AM 8:30 PM
Waxing Crescent, 48% visible
METAR EDDV 221750Z 18011KT 130V210 9999 VCTS FEW040CB SCT140 BKN280 23/11 Q1009 TEMPO 22020G40KT 4000 TSRA
Pressure 29.80 in
Visibility 6.2 miles
Clouds Few 4000 ft
Scattered Clouds 14000 ft
Mostly Cloudy 28000 ft
Heat Index 76 °F
Dew Point 59 °F
Humidity 61%
Rainfall 0.12 in
Snow Depth Not available.
6:07 AM 8:30 PM
Waxing Crescent, 48% visible
METAR EDDV 221750Z 18011KT 130V210 9999 VCTS FEW040CB SCT140 BKN280 23/11 Q1009 TEMPO 22020G40KT 4000 TSRA

Get Severe Weather Alerts

Thanks for signing up!

Be on the lookout for a verification email in your inbox.

You'll start receiving the daily forecast at 6 AM.

×

10-Day Weather Forecast

×

Almanac

Astronomy

Apr. 22, 2018 Rise Set
Actual Time
Civil Twilight
Nautical Twilight
Astronomical Twilight
Moon
Length of Visible Light
Length of Day
Tomorrow will be .
, % of the Moon is Illuminated

Today's Extremes

Country Highs Country Lows

Community

WunderPhotos

Category 6

Welcome to Category 6. This is the collective home for Weather Underground's featured writeups by Dr. Jeff Masters (right), Bob Henson (left), Chris Burt, and other regular contributors.

Nearby

Air Quality

  Air Quality AQ Index Pollutant
Not available.

Snow Depth

Station Depth Elevation

Earthquake Activity

City Distance Mag. Time & Date
Minimum magnitude displayed is 2.5.

Coastal Water Temperatures

Place Temperature

Stations

Nearby Weather Stations

Station Location Temp. Windchill Dew Point Humidity Wind Precip. Elev Updated Type